»·PEaware :: N285SR M94-S36

N285SR :: M94-S36

FLIGHT INFORMATION

Flight Status: Arrived
Operator: Privately registered:
United States
More flights under this callsign
Pilot: Scott R. (20908)
Aircraft: Diamond DA-62
(DA62)
More flights by this aircraft type
Origin: M94 Desert Aire
United States
Destination: S36 Norman Grier Field
United States
More flights between these airports :: More routes between these airports
Route:
File this flight plan on PilotEdge
Remarks:
Altitude:
(Current/Filed)
8,500ft
Speed:
(Current/Filed)
170kts
Departed: 17-Jun-20 09:56 AM
Arrived: 17-Jun-20 10:38 AM
Distance/Time
Traveled:
98nm/0:42
Distance/Time
To Go:
Arrived

Flight Plot

Page will automatically refresh every two minutes.

Flight plan parsing failed; only flown route is shown


Map Options




Map Legend


Flown Route
Filed Route
Departure Airport
Arrival Airport
Navaid (VOR, NDB)
Fix

Horizontal Profiles

Position Reports

Time Latitude Longitude Heading Altitude Ground
Speed
17-Jun-20 09:51 46.684505 -119.913871 115 589ft 0kts
17-Jun-20 09:52 46.684505 -119.913871 115 589ft 0kts
17-Jun-20 09:53 46.684486 -119.913764 101 589ft 0kts
17-Jun-20 09:54 46.685261 -119.913916 294 589ft 22kts
17-Jun-20 09:55 46.701217 -119.928433 11 1256ft 95kts
17-Jun-20 09:56 46.726658 -119.917087 12 2408ft 97kts
17-Jun-20 09:57 46.753248 -119.908402 12 3557ft 98kts
17-Jun-20 09:58 46.779828 -119.899623 12 4706ft 98kts
17-Jun-20 09:59 46.806654 -119.894958 357 5846ft 97kts
17-Jun-20 10:00 46.833557 -119.895636 348 6991ft 97kts
17-Jun-20 10:01 46.858583 -119.907322 327 8121ft 96kts
17-Jun-20 10:02 46.885380 -119.933377 326 8510ft 146kts
17-Jun-20 10:03 46.921061 -119.971531 296 8493ft 169kts
17-Jun-20 10:04 46.933141 -120.039963 286 8501ft 175kts
17-Jun-20 10:05 46.947007 -120.108491 288 8497ft 176kts
17-Jun-20 10:06 46.961096 -120.177094 289 8499ft 176kts
17-Jun-20 10:07 46.975221 -120.245995 288 8497ft 177kts
17-Jun-20 10:08 46.989285 -120.315020 288 8498ft 176kts
17-Jun-20 10:09 47.003220 -120.383579 288 8499ft 175kts
17-Jun-20 10:10 47.017104 -120.452245 289 8499ft 175kts
17-Jun-20 10:11 47.030987 -120.520777 289 8499ft 175kts
17-Jun-20 10:12 47.044848 -120.589369 289 8497ft 175kts
17-Jun-20 10:13 47.058059 -120.655531 288 8496ft 176kts
17-Jun-20 10:14 47.072172 -120.726424 288 8498ft 175kts
17-Jun-20 10:15 47.085872 -120.795049 288 8496ft 176kts
17-Jun-20 10:16 47.099547 -120.863874 289 8499ft 174kts
17-Jun-20 10:17 47.112407 -120.932984 278 8497ft 177kts
17-Jun-20 10:18 47.114854 -121.005349 276 8514ft 177kts
17-Jun-20 10:19 47.117094 -121.077290 276 8553ft 176kts
17-Jun-20 10:20 47.119125 -121.149158 276 8588ft 176kts
17-Jun-20 10:21 47.121070 -121.220899 276 8619ft 175kts
17-Jun-20 10:22 47.123571 -121.292724 279 8618ft 176kts
17-Jun-20 10:23 47.128007 -121.364851 279 8473ft 181kts
17-Jun-20 10:24 47.132565 -121.437437 279 8464ft 177kts
17-Jun-20 10:25 47.137036 -121.509512 279 8345ft 181kts
17-Jun-20 10:26 47.141956 -121.584295 279 7855ft 184kts
17-Jun-20 10:27 47.146903 -121.657080 279 7344ft 172kts
17-Jun-20 10:28 47.151713 -121.726391 279 6847ft 169kts
17-Jun-20 10:29 47.156716 -121.794757 279 6298ft 168kts
17-Jun-20 10:30 47.166721 -121.860017 318 5497ft 165kts
17-Jun-20 10:31 47.200245 -121.905786 315 4597ft 162kts
17-Jun-20 10:32 47.231849 -121.951251 315 3580ft 150kts
17-Jun-20 10:33 47.260050 -121.991891 314 2553ft 136kts
17-Jun-20 10:34 47.286957 -122.030772 315 1649ft 136kts
17-Jun-20 10:35 47.311331 -122.069321 296 1091ft 97kts
17-Jun-20 10:36 47.325182 -122.095929 310 682ft 79kts
17-Jun-20 10:37 47.339729 -122.103976 30 476ft 13kts
17-Jun-20 10:38 47.340108 -122.103746 170 476ft 0kts
17-Jun-20 10:39 47.340108 -122.103746 170 476ft 0kts
17-Jun-20 10:40 47.340108 -122.103746 170 476ft 0kts
17-Jun-20 10:41 47.340108 -122.103746 170 476ft 0kts
17-Jun-20 10:42 47.340108 -122.103746 170 476ft 0kts
17-Jun-20 10:43 47.340108 -122.103746 170 476ft 0kts
17-Jun-20 10:44 47.340108 -122.103746 170 476ft 0kts
17-Jun-20 10:45 47.340108 -122.103746 170 476ft 0kts
17-Jun-20 10:46 47.340108 -122.103746 170 476ft 0kts
17-Jun-20 10:47 47.340108 -122.103746 170 476ft 0kts
17-Jun-20 10:48 47.340108 -122.103746 170 476ft 0kts

Navigation Log

Ident Type
Flight plan parsing failed, navigation log unavailable